createdAt,value
2023-04-13T00:00:52.330Z,62.50
2023-04-13T00:03:19.339Z,61.91
2023-04-13T00:05:47.010Z,62.37
2023-04-13T00:08:14.144Z,62.67
2023-04-13T00:10:41.475Z,62.40
2023-04-13T00:13:10.290Z,62.62
2023-04-13T00:15:40.966Z,62.75
2023-04-13T00:18:08.988Z,62.17
2023-04-13T00:20:35.783Z,62.52
2023-04-13T00:23:03.018Z,62.45
2023-04-13T00:25:30.650Z,62.65
2023-04-13T00:27:57.503Z,63.15
2023-04-13T00:30:24.419Z,62.92
2023-04-13T00:32:51.185Z,62.92
2023-04-13T00:35:24.752Z,63.37
2023-04-13T00:37:52.066Z,62.86
2023-04-13T00:40:19.130Z,63.01
2023-04-13T00:42:47.576Z,62.77
2023-04-13T00:45:15.442Z,63.21
2023-04-13T00:47:46.761Z,62.68
2023-04-13T00:50:14.567Z,62.59
2023-04-13T00:52:42.943Z,62.68
2023-04-13T00:55:09.838Z,63.05
2023-04-13T00:57:40.851Z,62.71
2023-04-13T01:00:09.809Z,63.01
2023-04-13T01:02:41.959Z,62.93
2023-04-13T01:05:12.631Z,63.26
2023-04-13T01:07:59.559Z,63.08
2023-04-13T01:10:54.659Z,63.61
2023-04-13T01:13:25.348Z,63.34
2023-04-13T01:16:04.222Z,62.99
2023-04-13T01:18:33.445Z,62.88
2023-04-13T01:21:02.424Z,62.83
2023-04-13T01:23:59.223Z,62.73
2023-04-13T01:26:55.177Z,63.20
2023-04-13T01:29:22.445Z,63.17
2023-04-13T01:31:50.240Z,63.28
2023-04-13T01:34:17.195Z,63.08
2023-04-13T01:36:44.625Z,63.51
2023-04-13T01:39:19.422Z,63.51
2023-04-13T01:41:46.420Z,62.72
2023-04-13T01:44:13.820Z,62.73
2023-04-13T01:46:47.770Z,63.44
2023-04-13T01:49:19.603Z,63.54
2023-04-13T01:51:48.337Z,63.23
2023-04-13T01:54:20.632Z,63.14
2023-04-13T01:56:48.997Z,63.30
2023-04-13T01:59:16.706Z,62.66
2023-04-13T02:01:44.047Z,63.19
2023-04-13T02:04:11.055Z,62.92
2023-04-13T02:06:37.967Z,63.15
2023-04-13T02:09:06.973Z,63.10
2023-04-13T02:11:35.525Z,63.32
2023-04-13T02:14:02.462Z,62.88
2023-04-13T02:16:29.232Z,63.02
2023-04-13T02:18:58.493Z,63.67
2023-04-13T02:21:25.920Z,63.46
2023-04-13T02:23:53.002Z,63.18
2023-04-13T02:26:20.205Z,63.51
2023-04-13T02:28:47.332Z,63.38
2023-04-13T02:31:17.366Z,63.63
2023-04-13T02:33:44.901Z,63.89
2023-04-13T02:36:12.399Z,63.95
2023-04-13T02:38:39.162Z,63.93
2023-04-13T02:41:06.696Z,63.88
2023-04-13T02:43:34.429Z,64.27
2023-04-13T02:46:01.238Z,64.19
2023-04-13T02:48:28.350Z,63.79
2023-04-13T02:50:55.169Z,64.70
2023-04-13T02:53:22.225Z,64.62
2023-04-13T02:55:53.789Z,64.53
2023-04-13T02:58:21.470Z,63.88
2023-04-13T03:00:48.845Z,64.62
2023-04-13T03:03:17.084Z,64.73
2023-04-13T03:05:43.973Z,64.59
2023-04-13T03:08:10.727Z,64.54
2023-04-13T03:10:37.843Z,64.65
2023-04-13T03:13:04.603Z,64.62
2023-04-13T03:15:31.733Z,64.91
2023-04-13T03:18:00.143Z,64.73
2023-04-13T03:20:29.219Z,64.44
2023-04-13T03:22:56.323Z,64.08
2023-04-13T03:25:23.041Z,65.05
2023-04-13T03:27:50.751Z,64.53
2023-04-13T03:30:18.791Z,64.97
2023-04-13T03:32:45.738Z,64.63
2023-04-13T03:35:12.528Z,65.11
2023-04-13T03:37:43.579Z,65.10
2023-04-13T03:40:10.702Z,64.63
2023-04-13T03:42:37.872Z,64.64
2023-04-13T03:45:06.156Z,65.01
2023-04-13T03:47:32.861Z,65.10
2023-04-13T03:49:59.537Z,65.09
2023-04-13T03:52:26.238Z,64.66
2023-04-13T03:54:52.982Z,64.95
2023-04-13T03:57:21.372Z,65.28
2023-04-13T03:59:48.184Z,65.23
2023-04-13T04:02:14.895Z,65.09
2023-04-13T04:04:41.562Z,65.49
2023-04-13T04:07:08.702Z,65.24
2023-04-13T04:09:35.353Z,65.25
2023-04-13T04:12:02.245Z,65.61
2023-04-13T04:14:28.930Z,65.14
2023-04-13T04:16:55.626Z,65.26
2023-04-13T04:19:22.289Z,65.63
2023-04-13T04:21:49.921Z,65.34
2023-04-13T04:24:23.544Z,65.45
2023-04-13T04:26:50.840Z,65.58
2023-04-13T04:29:22.361Z,65.47
2023-04-13T04:31:53.831Z,65.25
2023-04-13T04:34:20.978Z,65.35
2023-04-13T04:36:52.076Z,65.05
2023-04-13T04:39:23.601Z,64.82
2023-04-13T04:41:54.661Z,65.33
2023-04-13T04:44:25.453Z,65.15
2023-04-13T04:46:53.025Z,65.54
2023-04-13T04:49:21.698Z,65.27
2023-04-13T04:51:49.242Z,65.72
2023-04-13T04:54:20.222Z,65.57
2023-04-13T04:56:51.211Z,65.47
2023-04-13T04:59:20.542Z,65.43
2023-04-13T05:01:49.644Z,65.33
2023-04-13T05:04:16.518Z,65.62
2023-04-13T05:06:44.868Z,65.57
2023-04-13T05:09:11.874Z,65.36
2023-04-13T05:11:39.181Z,64.96
2023-04-13T05:14:06.105Z,65.55
2023-04-13T05:16:34.459Z,65.16
2023-04-13T05:19:01.899Z,65.25
2023-04-13T05:21:28.865Z,65.01
2023-04-13T05:23:56.580Z,65.09
2023-04-13T05:26:25.565Z,64.74
2023-04-13T05:28:52.380Z,65.35
2023-04-13T05:31:19.066Z,65.20
2023-04-13T05:33:46.718Z,64.74
2023-04-13T05:36:13.648Z,64.95
2023-04-13T05:38:40.315Z,64.72
2023-04-13T05:41:07.495Z,64.87
2023-04-13T05:43:37.334Z,64.83
2023-04-13T05:46:04.140Z,64.81
2023-04-13T05:48:33.592Z,64.65
2023-04-13T05:51:00.989Z,64.93
2023-04-13T05:53:27.753Z,64.46
2023-04-13T05:55:54.835Z,64.90
2023-04-13T05:58:22.106Z,64.66
2023-04-13T06:00:48.838Z,64.36
2023-04-13T06:03:16.489Z,64.30
2023-04-13T06:05:43.789Z,64.02
2023-04-13T06:08:10.768Z,64.50
2023-04-13T06:10:37.709Z,64.05
2023-04-13T06:13:04.453Z,64.74
2023-04-13T06:15:31.987Z,64.31
2023-04-13T06:17:58.735Z,64.28
2023-04-13T06:20:25.546Z,64.45
2023-04-13T06:22:52.222Z,64.37
2023-04-13T06:25:19.712Z,64.43
2023-04-13T06:27:48.627Z,64.65
2023-04-13T06:30:15.811Z,64.53
2023-04-13T06:32:42.623Z,64.31
2023-04-13T06:35:10.936Z,64.67
2023-04-13T06:37:39.072Z,64.86
2023-04-13T06:40:12.777Z,64.36
2023-04-13T06:42:41.254Z,64.39
2023-04-13T06:45:09.094Z,64.19
2023-04-13T06:47:37.361Z,64.49
2023-04-13T06:50:06.645Z,64.06
2023-04-13T06:52:34.040Z,64.39
2023-04-13T06:55:01.354Z,64.61
2023-04-13T06:57:28.594Z,64.47
2023-04-13T06:59:55.667Z,64.29
2023-04-13T07:02:23.087Z,64.43
2023-04-13T07:04:49.921Z,63.89
2023-04-13T07:07:16.760Z,64.13
2023-04-13T07:09:43.451Z,64.50
2023-04-13T07:12:10.123Z,64.36
2023-04-13T07:14:41.191Z,64.05
2023-04-13T07:17:08.831Z,64.33
2023-04-13T07:19:36.846Z,64.24
2023-04-13T07:22:04.364Z,64.27
2023-04-13T07:24:34.094Z,64.16
2023-04-13T07:27:01.446Z,64.23
2023-04-13T07:29:28.224Z,63.86
2023-04-13T07:32:03.423Z,64.54
2023-04-13T07:34:30.847Z,64.50
2023-04-13T07:36:57.522Z,64.28
2023-04-13T07:39:24.220Z,64.12
2023-04-13T07:41:51.249Z,64.34
2023-04-13T07:44:17.910Z,64.21
2023-04-13T07:46:44.640Z,63.97
2023-04-13T07:49:11.417Z,64.37
2023-04-13T07:51:38.222Z,64.11
2023-04-13T07:54:05.019Z,64.17
2023-04-13T07:56:31.850Z,63.92
2023-04-13T07:58:58.764Z,64.28
2023-04-13T08:01:26.466Z,63.56
2023-04-13T08:03:53.555Z,63.85
2023-04-13T08:06:23.519Z,64.21
2023-04-13T08:08:50.210Z,63.80
2023-04-13T08:11:16.931Z,63.42
2023-04-13T08:13:43.723Z,63.55
2023-04-13T08:16:11.325Z,63.03
2023-04-13T08:18:38.469Z,63.52
2023-04-13T08:21:15.313Z,63.58
2023-04-13T08:23:43.150Z,64.39
2023-04-13T08:26:20.539Z,65.04
2023-04-13T08:28:53.129Z,64.56
2023-04-13T08:31:20.531Z,64.23
2023-04-13T08:33:47.344Z,64.15
2023-04-13T08:36:14.177Z,63.19
2023-04-13T08:38:41.078Z,62.52
2023-04-13T08:41:09.897Z,61.82
2023-04-13T08:43:36.662Z,61.35
2023-04-13T08:46:05.952Z,61.41
2023-04-13T08:48:46.054Z,61.41
2023-04-13T08:51:22.531Z,61.55
2023-04-13T08:53:49.844Z,61.35
2023-04-13T08:56:16.854Z,61.15
2023-04-13T08:58:45.252Z,60.91
2023-04-13T09:01:16.373Z,60.70
2023-04-13T09:03:59.454Z,60.41
2023-04-13T09:06:33.270Z,60.29
2023-04-13T09:09:03.549Z,60.03
2023-04-13T09:11:30.223Z,60.28
2023-04-13T09:13:57.430Z,59.77
2023-04-13T09:16:24.444Z,60.26
2023-04-13T09:18:52.758Z,60.35
2023-04-13T09:21:19.706Z,60.48
2023-04-13T09:23:56.853Z,60.32
2023-04-13T09:26:23.990Z,60.58
2023-04-13T09:28:54.857Z,60.29
2023-04-13T09:31:22.911Z,60.50
2023-04-13T09:33:52.115Z,60.24
2023-04-13T09:36:22.857Z,60.48
2023-04-13T09:38:57.927Z,60.24
2023-04-13T09:41:38.938Z,60.08
2023-04-13T09:44:24.914Z,59.88
2023-04-13T09:47:02.571Z,59.96
2023-04-13T09:49:43.766Z,59.96
2023-04-13T09:52:24.266Z,60.24
2023-04-13T09:54:55.732Z,60.18
2023-04-13T09:57:26.191Z,60.64
2023-04-13T09:59:54.014Z,60.47
2023-04-13T10:02:22.274Z,60.18
2023-04-13T10:04:50.692Z,60.28
2023-04-13T10:07:18.249Z,59.96
2023-04-13T10:09:45.173Z,59.93
2023-04-13T10:12:13.677Z,59.88
2023-04-13T10:14:48.515Z,60.20
2023-04-13T10:17:22.005Z,60.10
2023-04-13T10:19:51.359Z,60.60
2023-04-13T10:22:20.546Z,60.20
2023-04-13T10:24:47.356Z,59.91
2023-04-13T10:27:22.487Z,60.25
2023-04-13T10:29:50.160Z,60.83
2023-04-13T10:32:28.538Z,60.93
2023-04-13T10:34:56.099Z,60.79
2023-04-13T10:37:25.381Z,61.29
2023-04-13T10:40:06.753Z,60.80
2023-04-13T10:45:26.677Z,61.52
2023-04-13T10:47:54.500Z,61.43
2023-04-13T10:50:22.873Z,61.87
2023-04-13T10:53:09.090Z,61.66
2023-04-13T10:55:36.774Z,61.48
2023-04-13T10:58:16.541Z,61.60
2023-04-13T11:00:46.719Z,62.34
2023-04-13T11:03:17.743Z,61.99
2023-04-13T11:05:57.144Z,62.56
2023-04-13T11:08:24.425Z,62.82
2023-04-13T11:10:55.065Z,62.32
2023-04-13T11:13:25.413Z,62.52
2023-04-13T11:16:00.081Z,62.38
2023-04-13T11:18:27.905Z,62.72
2023-04-13T11:20:55.398Z,62.17
2023-04-13T11:23:24.196Z,62.86
2023-04-13T11:25:58.374Z,62.86
2023-04-13T11:28:35.788Z,63.16
2023-04-13T11:31:02.501Z,62.93
2023-04-13T11:33:31.342Z,63.33
2023-04-13T11:36:00.392Z,63.16
2023-04-13T11:38:28.607Z,63.92
2023-04-13T11:41:15.217Z,63.86
2023-04-13T11:43:46.383Z,64.15
2023-04-13T11:46:15.486Z,64.04
2023-04-13T11:48:43.652Z,64.16
2023-04-13T11:51:11.714Z,64.22
2023-04-13T11:53:40.399Z,64.71
2023-04-13T11:56:07.842Z,64.80
2023-04-13T11:58:36.306Z,64.90
2023-04-13T12:01:13.756Z,64.97
2023-04-13T12:03:56.920Z,65.14
2023-04-13T12:06:30.019Z,65.26
2023-04-13T12:09:09.267Z,66.00
2023-04-13T12:11:46.391Z,65.80
2023-04-13T12:14:49.889Z,66.04
2023-04-13T12:19:45.968Z,65.87
2023-04-13T12:22:14.699Z,66.32
2023-04-13T12:24:42.830Z,66.40
2023-04-13T12:27:18.561Z,66.47
2023-04-13T12:29:46.022Z,66.90
2023-04-13T12:32:17.253Z,67.21
2023-04-13T12:34:44.889Z,67.17
2023-04-13T12:37:12.276Z,67.08
2023-04-13T12:39:39.592Z,67.41
2023-04-13T12:42:06.491Z,67.64
2023-04-13T12:44:34.326Z,67.62
2023-04-13T12:47:01.678Z,67.73
2023-04-13T12:49:28.739Z,67.83
2023-04-13T12:51:55.611Z,67.69
2023-04-13T12:54:22.358Z,67.65
2023-04-13T12:56:49.261Z,67.87
2023-04-13T12:59:16.804Z,68.01
2023-04-13T13:01:43.660Z,67.94
2023-04-13T13:04:10.458Z,68.02
2023-04-13T13:06:37.289Z,68.41
2023-04-13T13:09:03.997Z,68.16
2023-04-13T13:11:30.897Z,68.19
2023-04-13T13:13:57.573Z,68.01
2023-04-13T13:16:24.368Z,68.38
2023-04-13T13:18:52.048Z,68.62
2023-04-13T13:21:19.518Z,68.50
2023-04-13T13:23:46.420Z,69.06
2023-04-13T13:28:42.819Z,69.33
2023-04-13T13:31:09.522Z,69.23
2023-04-13T13:33:36.469Z,69.37
2023-04-13T13:36:03.114Z,69.45
2023-04-13T13:38:29.984Z,69.50
2023-04-13T13:40:56.761Z,69.43
2023-04-13T13:43:23.412Z,69.61
2023-04-13T13:45:50.325Z,69.39
2023-04-13T13:48:17.000Z,69.77
2023-04-13T13:50:43.790Z,69.88
2023-04-13T13:53:10.597Z,69.47
2023-04-13T13:55:37.273Z,69.36
2023-04-13T13:58:04.062Z,69.59
2023-04-13T14:00:31.200Z,70.11
2023-04-13T14:02:58.050Z,69.71
2023-04-13T14:05:24.745Z,70.03
2023-04-13T14:07:51.480Z,69.89
2023-04-13T14:10:18.147Z,69.61
2023-04-13T14:12:49.622Z,69.65
2023-04-13T14:15:17.608Z,69.84
2023-04-13T14:17:50.244Z,69.99
2023-04-13T14:20:22.591Z,70.20
2023-04-13T14:22:49.356Z,69.88
2023-04-13T14:25:15.976Z,70.40
2023-04-13T14:27:42.580Z,70.18
2023-04-13T14:30:09.766Z,70.18
2023-04-13T14:32:36.553Z,69.83
2023-04-13T14:35:03.261Z,70.26
2023-04-13T14:37:29.991Z,70.37
2023-04-13T14:39:56.593Z,70.32
2023-04-13T14:42:24.901Z,70.41
2023-04-13T14:44:52.011Z,70.06
2023-04-13T14:47:19.823Z,69.83
2023-04-13T14:49:47.492Z,70.45
2023-04-13T14:52:14.796Z,70.33
2023-04-13T14:54:42.116Z,70.03
2023-04-13T14:57:09.994Z,70.93
2023-04-13T14:59:37.368Z,70.98
2023-04-13T15:02:04.375Z,70.61
2023-04-13T15:04:31.654Z,70.43
2023-04-13T15:06:58.867Z,70.17
2023-04-13T15:09:25.716Z,70.33
2023-04-13T15:11:52.642Z,71.02
2023-04-13T15:14:19.394Z,70.79
2023-04-13T15:16:46.315Z,70.66
2023-04-13T15:19:13.032Z,70.86
2023-04-13T15:21:39.802Z,70.48
2023-04-13T15:24:07.106Z,71.11
2023-04-13T15:26:39.670Z,70.97
2023-04-13T15:29:07.334Z,70.84
2023-04-13T15:31:36.362Z,70.74
2023-04-13T15:34:05.710Z,71.22
2023-04-13T15:36:32.336Z,70.71
2023-04-13T15:38:59.228Z,70.74
2023-04-13T15:41:27.521Z,70.31
2023-04-13T15:43:55.700Z,71.00
2023-04-13T15:46:22.491Z,70.62
2023-04-13T15:48:50.468Z,70.40
2023-04-13T15:51:17.344Z,70.92
2023-04-13T15:53:43.986Z,70.91
2023-04-13T15:56:10.693Z,70.65
2023-04-13T15:58:37.649Z,70.91
2023-04-13T16:01:07.968Z,70.42
2023-04-13T16:03:35.601Z,70.29
2023-04-13T16:06:03.338Z,70.44
2023-04-13T16:08:30.018Z,70.55
2023-04-13T16:10:56.721Z,70.00
2023-04-13T16:13:23.486Z,70.54
2023-04-13T16:15:55.838Z,70.00
2023-04-13T16:18:31.967Z,70.74
2023-04-13T16:21:03.720Z,70.17
2023-04-13T16:23:34.654Z,70.65
2023-04-13T16:26:01.978Z,70.59
2023-04-13T16:28:29.753Z,70.40
2023-04-13T16:30:56.530Z,70.12
2023-04-13T16:33:23.390Z,70.34
2023-04-13T16:35:51.347Z,70.13
2023-04-13T16:38:17.968Z,70.11
2023-04-13T16:40:44.547Z,70.46
2023-04-13T16:43:11.240Z,70.52
2023-04-13T16:45:37.925Z,70.02
2023-04-13T16:48:05.482Z,70.02
2023-04-13T16:50:32.479Z,69.89
2023-04-13T16:52:59.925Z,70.37
2023-04-13T16:55:28.644Z,70.21
2023-04-13T16:57:55.980Z,69.69
2023-04-13T17:00:23.124Z,70.09
2023-04-13T17:02:50.040Z,70.22
2023-04-13T17:05:17.003Z,70.12
2023-04-13T17:07:46.879Z,69.92
2023-04-13T17:10:14.685Z,70.05
2023-04-13T17:12:41.383Z,69.98
2023-04-13T17:15:09.491Z,70.19
2023-04-13T17:17:38.407Z,70.02
2023-04-13T17:20:06.499Z,70.09
2023-04-13T17:22:33.128Z,70.10
2023-04-13T17:24:59.873Z,69.82
2023-04-13T17:27:26.669Z,69.71
2023-04-13T17:29:53.319Z,70.26
2023-04-13T17:32:21.861Z,70.32
2023-04-13T17:34:49.280Z,70.19
2023-04-13T17:37:16.100Z,70.08
2023-04-13T17:39:47.318Z,69.91
2023-04-13T17:42:15.144Z,69.83
2023-04-13T17:44:42.342Z,69.75
2023-04-13T17:47:09.229Z,69.68
2023-04-13T17:49:36.768Z,70.14
2023-04-13T17:52:03.836Z,69.72
2023-04-13T17:54:30.496Z,69.77
2023-04-13T17:56:57.132Z,70.22
2023-04-13T17:59:23.727Z,69.59
2023-04-13T18:01:54.515Z,69.67
2023-04-13T18:04:21.520Z,69.87
2023-04-13T18:06:48.740Z,69.70
2023-04-13T18:09:15.645Z,70.15
2023-04-13T18:11:42.314Z,70.06
2023-04-13T18:14:12.299Z,69.82
2023-04-13T18:16:39.476Z,70.23
2023-04-13T18:19:06.433Z,70.20
2023-04-13T18:21:33.542Z,69.82
2023-04-13T18:24:03.227Z,70.12
2023-04-13T18:26:30.037Z,70.02
2023-04-13T18:28:56.919Z,70.25
2023-04-13T18:31:23.874Z,70.32
2023-04-13T18:33:50.581Z,70.09
2023-04-13T18:36:18.417Z,70.02
2023-04-13T18:38:46.120Z,69.87
2023-04-13T18:41:13.438Z,70.02
2023-04-13T18:43:40.826Z,70.00
2023-04-13T18:46:08.155Z,70.03
2023-04-13T18:48:35.753Z,69.85
2023-04-13T18:51:03.605Z,70.08
2023-04-13T18:53:30.979Z,69.75
2023-04-13T18:55:58.795Z,70.04
2023-04-13T18:58:26.456Z,69.68
2023-04-13T19:00:53.168Z,69.92
2023-04-13T19:03:19.977Z,69.78
2023-04-13T19:05:47.256Z,70.25
2023-04-13T19:08:14.105Z,69.95
2023-04-13T19:10:41.670Z,69.90
2023-04-13T19:13:08.323Z,70.56
2023-04-13T19:15:35.838Z,70.24
2023-04-13T19:18:04.245Z,69.98
2023-04-13T19:20:31.210Z,69.95
2023-04-13T19:22:57.923Z,70.45
2023-04-13T19:25:24.592Z,70.21
2023-04-13T19:27:51.375Z,70.05
2023-04-13T19:30:18.953Z,69.97
2023-04-13T19:32:47.587Z,70.23
2023-04-13T19:35:14.593Z,70.33
2023-04-13T19:37:41.790Z,70.47
2023-04-13T19:40:14.981Z,70.47
2023-04-13T19:42:46.040Z,70.53
2023-04-13T19:45:14.922Z,70.27
2023-04-13T19:47:42.482Z,70.26
2023-04-13T19:50:12.459Z,70.32
2023-04-13T19:52:39.938Z,70.12
2023-04-13T19:55:08.467Z,70.46
2023-04-13T19:57:36.914Z,70.51
2023-04-13T20:00:07.411Z,70.20
2023-04-13T20:02:34.186Z,70.12
2023-04-13T20:05:00.871Z,69.85
2023-04-13T20:07:27.533Z,70.70
2023-04-13T20:09:54.225Z,70.46
2023-04-13T20:12:21.613Z,70.16
2023-04-13T20:14:49.436Z,70.56
2023-04-13T20:17:16.340Z,70.79
2023-04-13T20:19:43.013Z,70.59
2023-04-13T20:22:10.246Z,70.62
2023-04-13T20:24:36.904Z,70.92
2023-04-13T20:27:03.528Z,70.50
2023-04-13T20:29:30.155Z,70.82
2023-04-13T20:31:57.296Z,71.12
2023-04-13T20:34:27.387Z,71.04
2023-04-13T20:36:56.421Z,70.92
2023-04-13T20:39:25.734Z,70.96
2023-04-13T20:41:55.875Z,71.11
2023-04-13T20:44:27.387Z,70.54
2023-04-13T20:46:54.466Z,70.62
2023-04-13T20:49:22.975Z,71.16
2023-04-13T20:51:56.057Z,71.04
2023-04-13T20:54:23.457Z,71.03
2023-04-13T20:56:50.355Z,70.99
2023-04-13T20:59:18.400Z,70.98
2023-04-13T21:01:45.711Z,71.09
2023-04-13T21:04:12.583Z,70.79
2023-04-13T21:06:40.493Z,71.10
2023-04-13T21:09:08.298Z,70.78
2023-04-13T21:11:35.049Z,70.79
2023-04-13T21:14:01.964Z,70.74
2023-04-13T21:16:28.882Z,71.12
2023-04-13T21:18:55.994Z,71.06
2023-04-13T21:21:24.145Z,70.48
2023-04-13T21:23:51.288Z,70.94
2023-04-13T21:26:17.932Z,70.89
2023-04-13T21:28:44.629Z,70.87
2023-04-13T21:31:11.293Z,71.34
2023-04-13T21:33:38.046Z,71.35
2023-04-13T21:38:41.601Z,71.35
2023-04-13T21:41:19.188Z,71.16
2023-04-13T21:43:46.530Z,70.85
2023-04-13T21:46:15.078Z,70.83
2023-04-13T21:48:42.174Z,71.06
2023-04-13T21:51:09.694Z,70.96
2023-04-13T21:53:36.720Z,71.25
2023-04-13T21:56:04.880Z,71.25
2023-04-13T21:58:39.475Z,71.36
2023-04-13T22:01:07.635Z,70.84
2023-04-13T22:03:38.280Z,70.76
2023-04-13T22:06:07.238Z,71.50
2023-04-13T22:08:34.262Z,71.20
2023-04-13T22:11:01.529Z,71.22
2023-04-13T22:13:28.539Z,71.13
2023-04-13T22:15:55.432Z,70.91
2023-04-13T22:18:22.341Z,71.31
2023-04-13T22:20:49.016Z,70.98
2023-04-13T22:23:15.942Z,70.80
2023-04-13T22:25:42.608Z,71.26
2023-04-13T22:28:09.198Z,71.07
2023-04-13T22:30:36.396Z,71.19
2023-04-13T22:33:03.031Z,70.93
2023-04-13T22:35:29.668Z,70.63
2023-04-13T22:37:56.265Z,71.16
2023-04-13T22:40:22.852Z,71.07
2023-04-13T22:42:49.448Z,71.30
2023-04-13T22:45:16.325Z,70.85
2023-04-13T22:47:42.981Z,71.33
2023-04-13T22:50:09.880Z,71.31
2023-04-13T22:52:36.522Z,70.88
2023-04-13T22:55:03.317Z,71.45
2023-04-13T22:57:29.930Z,71.31
2023-04-13T22:59:56.624Z,71.23
2023-04-13T23:02:23.326Z,71.46
2023-04-13T23:04:50.204Z,71.05
2023-04-13T23:07:16.941Z,70.75
2023-04-13T23:09:43.530Z,71.17
2023-04-13T23:12:10.140Z,71.41
2023-04-13T23:14:36.752Z,71.68
2023-04-13T23:17:03.978Z,71.34
2023-04-13T23:19:30.593Z,71.69
2023-04-13T23:21:57.214Z,71.50
2023-04-13T23:24:23.857Z,71.99
2023-04-13T23:26:50.442Z,71.83
2023-04-13T23:29:17.126Z,71.15
2023-04-13T23:31:43.764Z,71.25
2023-04-13T23:34:10.428Z,71.53
2023-04-13T23:36:37.175Z,71.64
2023-04-13T23:39:04.412Z,72.06
2023-04-13T23:41:31.040Z,71.84
2023-04-13T23:43:57.794Z,71.59
2023-04-13T23:46:24.972Z,71.78
2023-04-13T23:48:51.581Z,71.80
2023-04-13T23:51:18.225Z,71.92
2023-04-13T23:53:44.819Z,72.25
2023-04-13T23:56:11.438Z,71.86
2023-04-13T23:58:38.063Z,72.33
